createdAt,value
2019-03-21T00:00:49.351Z,3.85
2019-03-21T00:01:46.391Z,3.90
2019-03-21T00:02:46.390Z,3.88
2019-03-21T00:03:46.368Z,3.83
2019-03-21T00:04:46.335Z,3.76
2019-03-21T00:05:46.338Z,3.75
2019-03-21T00:06:46.342Z,3.80
2019-03-21T00:07:46.353Z,3.90
2019-03-21T00:08:46.292Z,3.83
2019-03-21T00:09:46.309Z,3.82
2019-03-21T00:10:46.315Z,3.82
2019-03-21T00:11:46.272Z,3.82
2019-03-21T00:12:46.284Z,3.70
2019-03-21T00:13:46.260Z,3.68
2019-03-21T00:14:46.235Z,3.64
2019-03-21T00:15:46.245Z,3.61
2019-03-21T00:16:46.249Z,3.71
2019-03-21T00:17:46.252Z,3.65
2019-03-21T00:18:46.216Z,3.83
2019-03-21T00:19:46.273Z,3.78
2019-03-21T00:20:46.234Z,3.71
2019-03-21T00:21:46.158Z,3.67
2019-03-21T00:22:46.199Z,3.80
2019-03-21T00:23:46.212Z,3.83
2019-03-21T00:24:46.121Z,3.78
2019-03-21T00:25:46.136Z,3.72
2019-03-21T00:26:46.134Z,3.83
2019-03-21T00:27:46.099Z,3.90
2019-03-21T00:28:46.144Z,3.98
2019-03-21T00:29:46.154Z,4.03
2019-03-21T00:30:46.086Z,4.00
2019-03-21T00:31:46.038Z,4.01
2019-03-21T00:32:46.074Z,4.04
2019-03-21T00:33:46.045Z,3.94
2019-03-21T00:34:46.099Z,3.88
2019-03-21T00:35:45.999Z,3.89
2019-03-21T00:36:46.009Z,3.79
2019-03-21T00:37:46.001Z,3.76
2019-03-21T00:38:46.014Z,3.76
2019-03-21T00:39:45.952Z,3.68
2019-03-21T00:40:46.030Z,3.70
2019-03-21T00:41:45.988Z,3.68
2019-03-21T00:42:45.954Z,3.64
2019-03-21T00:43:50.019Z,3.72
2019-03-21T00:44:45.939Z,3.80
2019-03-21T00:45:45.899Z,3.72
2019-03-21T00:46:54.980Z,3.82
2019-03-21T00:48:50.725Z,3.83
2019-03-21T00:49:50.675Z,3.80
2019-03-21T00:50:50.708Z,3.71
2019-03-21T00:51:50.413Z,3.68
2019-03-21T00:52:59.717Z,3.68
2019-03-21T00:54:45.419Z,3.67
2019-03-21T00:55:54.014Z,3.71
2019-03-21T00:57:49.933Z,3.68
2019-03-21T00:58:58.543Z,3.72
2019-03-21T01:01:03.328Z,3.75
2019-03-21T01:02:03.028Z,3.71
2019-03-21T01:03:58.704Z,3.70
2019-03-21T01:04:58.695Z,3.68
2019-03-21T01:05:58.613Z,3.64
2019-03-21T01:06:58.406Z,3.57
2019-03-21T01:07:58.296Z,3.53
2019-03-21T01:08:58.317Z,3.58
2019-03-21T01:09:58.568Z,3.49
2019-03-21T01:10:58.683Z,3.57
2019-03-21T01:11:58.233Z,3.60
2019-03-21T01:12:58.206Z,3.53
2019-03-21T01:13:58.191Z,3.62
2019-03-21T01:14:58.187Z,3.58
2019-03-21T01:15:58.170Z,3.62
2019-03-21T01:16:58.219Z,3.70
2019-03-21T01:19:38.303Z,3.47
2019-03-21T01:20:37.962Z,3.57
2019-03-21T01:21:38.011Z,3.57
2019-03-21T01:22:37.894Z,3.46
2019-03-21T01:23:37.526Z,3.47
2019-03-21T01:24:46.608Z,3.34
2019-03-21T01:26:42.464Z,3.34
2019-03-21T01:27:42.457Z,3.50
2019-03-21T01:28:42.797Z,3.57
2019-03-21T01:29:42.063Z,3.61
2019-03-21T01:30:41.999Z,3.62
2019-03-21T01:31:41.989Z,3.58
2019-03-21T01:32:42.253Z,3.49
2019-03-21T01:33:42.237Z,3.53
2019-03-21T01:34:41.898Z,3.54
2019-03-21T01:35:41.916Z,3.58
2019-03-21T01:36:41.871Z,3.61
2019-03-21T01:37:41.847Z,3.68
2019-03-21T01:38:41.837Z,3.75
2019-03-21T01:39:41.825Z,3.68
2019-03-21T01:40:41.835Z,3.68
2019-03-21T01:41:41.846Z,3.70
2019-03-21T01:42:41.762Z,3.54
2019-03-21T01:43:41.775Z,3.47
2019-03-21T01:44:41.745Z,3.52
2019-03-21T01:45:41.760Z,3.44
2019-03-21T01:46:41.775Z,3.42
2019-03-21T01:47:41.699Z,3.44
2019-03-21T01:48:41.762Z,3.44
2019-03-21T01:49:41.691Z,3.39
2019-03-21T01:50:41.672Z,3.33
2019-03-21T01:51:41.656Z,3.27
2019-03-21T01:52:41.634Z,3.23
2019-03-21T01:53:41.648Z,3.23
2019-03-21T01:54:41.634Z,3.28
2019-03-21T01:55:41.646Z,3.16
2019-03-21T01:56:41.606Z,3.25
2019-03-21T01:57:41.603Z,3.24
2019-03-21T01:58:41.569Z,3.25
2019-03-21T01:59:41.576Z,3.28
2019-03-21T02:00:41.547Z,3.33
2019-03-21T02:01:41.573Z,3.23
2019-03-21T02:02:41.546Z,3.27
2019-03-21T02:03:41.572Z,3.42
2019-03-21T02:04:50.786Z,3.44
2019-03-21T02:06:46.343Z,3.31
2019-03-21T02:07:46.004Z,3.28
2019-03-21T02:08:45.970Z,3.30
2019-03-21T02:09:45.937Z,3.30
2019-03-21T02:10:46.331Z,3.23
2019-03-21T02:11:46.339Z,3.16
2019-03-21T02:12:45.936Z,3.24
2019-03-21T02:13:45.864Z,3.25
2019-03-21T02:14:51.961Z,3.25
2019-03-21T02:15:46.566Z,3.25
2019-03-21T02:16:45.858Z,3.27
2019-03-21T02:17:45.802Z,3.27
2019-03-21T02:18:45.803Z,3.15
2019-03-21T02:19:45.852Z,3.15
2019-03-21T02:20:45.806Z,3.00
2019-03-21T02:21:45.816Z,3.09
2019-03-21T02:22:45.819Z,3.18
2019-03-21T02:23:45.730Z,3.09
2019-03-21T02:24:45.745Z,3.03
2019-03-21T02:25:45.738Z,3.05
2019-03-21T02:26:55.775Z,3.12
2019-03-21T02:29:00.620Z,3.10
2019-03-21T02:30:00.484Z,3.05
2019-03-21T02:31:56.051Z,2.91
2019-03-21T02:32:55.925Z,2.91
2019-03-21T02:33:55.999Z,3.03
2019-03-21T02:34:55.627Z,2.98
2019-03-21T02:35:55.644Z,2.94
2019-03-21T02:36:55.610Z,2.89
2019-03-21T02:38:04.694Z,2.94
2019-03-21T02:40:01.429Z,2.79
2019-03-21T02:41:10.004Z,2.85
2019-03-21T02:43:05.872Z,2.84
2019-03-21T02:44:05.540Z,2.92
2019-03-21T02:45:08.840Z,2.76
2019-03-21T02:46:05.504Z,2.73
2019-03-21T02:47:05.757Z,2.79
2019-03-21T02:48:05.440Z,2.73
2019-03-21T02:49:05.419Z,2.71
2019-03-21T02:50:05.396Z,2.67
2019-03-21T02:51:05.447Z,2.61
2019-03-21T02:52:05.413Z,2.66
2019-03-21T02:53:05.362Z,2.70
2019-03-21T02:54:05.350Z,2.82
2019-03-21T02:55:05.380Z,2.77
2019-03-21T02:56:14.411Z,2.76
2019-03-21T03:13:35.683Z,2.37
2019-03-21T03:14:35.366Z,2.40
2019-03-21T03:15:35.298Z,2.44
2019-03-21T03:16:35.297Z,2.41
2019-03-21T03:17:35.607Z,2.45
2019-03-21T03:18:35.493Z,2.41
2019-03-21T03:19:35.224Z,2.48
2019-03-21T03:20:35.308Z,2.52
2019-03-21T03:21:35.168Z,2.45
2019-03-21T03:22:35.179Z,2.49
2019-03-21T03:23:35.196Z,2.45
2019-03-21T03:24:35.173Z,2.45
2019-03-21T03:25:44.221Z,2.52
2019-03-21T03:27:39.987Z,2.51
2019-03-21T03:28:48.643Z,2.51
2019-03-21T03:30:44.435Z,2.63
2019-03-21T03:31:53.258Z,2.51
2019-03-21T03:33:59.346Z,2.34
2019-03-21T03:34:57.563Z,2.30
2019-03-21T03:36:53.297Z,2.26
2019-03-21T03:38:02.012Z,2.40
2019-03-21T03:40:07.802Z,2.30
2019-03-21T03:41:07.395Z,2.41
2019-03-21T03:43:03.238Z,2.40
2019-03-21T03:44:03.165Z,2.35
2019-03-21T03:45:11.858Z,2.30
2019-03-21T03:47:07.598Z,2.23
2019-03-21T03:48:07.360Z,2.30
2019-03-21T03:49:07.297Z,2.28
2019-03-21T03:50:16.330Z,2.28
2019-03-21T03:52:36.245Z,2.34
2019-03-21T03:53:35.473Z,2.41
2019-03-21T03:54:35.464Z,2.40
2019-03-21T03:55:35.833Z,2.38
2019-03-21T03:56:35.442Z,2.23
2019-03-21T03:57:35.390Z,2.26
2019-03-21T03:58:35.393Z,2.38
2019-03-21T03:59:35.390Z,2.41
2019-03-21T04:00:35.394Z,2.40
2019-03-21T04:01:35.349Z,2.48
2019-03-21T04:02:35.329Z,2.48
2019-03-21T04:03:35.331Z,2.48
2019-03-21T04:04:35.324Z,2.45
2019-03-21T04:05:35.324Z,2.38
2019-03-21T04:06:35.314Z,2.40
2019-03-21T04:07:35.281Z,2.49
2019-03-21T04:08:35.269Z,2.41
2019-03-21T04:09:35.260Z,2.49
2019-03-21T04:10:35.255Z,2.40
2019-03-21T04:11:35.232Z,2.41
2019-03-21T04:12:35.255Z,2.40
2019-03-21T04:13:35.219Z,2.37
2019-03-21T04:14:35.193Z,2.35
2019-03-21T04:15:35.250Z,2.48
2019-03-21T04:16:35.196Z,2.41
2019-03-21T04:17:35.218Z,2.34
2019-03-21T04:18:35.218Z,2.38
2019-03-21T04:19:35.143Z,2.37
2019-03-21T04:20:35.178Z,2.40
2019-03-21T04:21:35.148Z,2.15
2019-03-21T04:22:35.129Z,2.17
2019-03-21T04:23:35.074Z,2.02
2019-03-21T04:24:44.168Z,1.97
2019-03-21T04:26:39.932Z,1.97
2019-03-21T04:27:39.570Z,2.13
2019-03-21T04:28:39.516Z,2.15
2019-03-21T04:29:39.496Z,2.19
2019-03-21T04:30:39.514Z,2.13
2019-03-21T04:31:39.508Z,2.20
2019-03-21T04:32:39.807Z,2.19
2019-03-21T04:33:39.768Z,2.15
2019-03-21T04:34:39.412Z,1.99
2019-03-21T04:35:39.410Z,1.87
2019-03-21T04:36:39.430Z,1.87
2019-03-21T04:37:39.395Z,1.75
2019-03-21T04:38:39.368Z,1.65
2019-03-21T04:39:39.396Z,1.64
2019-03-21T04:40:39.355Z,1.69
2019-03-21T04:41:39.371Z,1.76
2019-03-21T04:42:39.353Z,1.89
2019-03-21T04:43:39.298Z,1.87
2019-03-21T04:44:39.312Z,1.80
2019-03-21T04:45:39.293Z,1.83
2019-03-21T04:46:39.279Z,1.78
2019-03-21T04:47:39.273Z,1.87
2019-03-21T04:48:39.277Z,1.80
2019-03-21T04:49:39.262Z,1.87
2019-03-21T04:50:39.226Z,1.83
2019-03-21T04:51:39.218Z,1.87
2019-03-21T04:52:39.228Z,1.94
2019-03-21T04:53:39.174Z,1.98
2019-03-21T04:54:39.193Z,2.04
2019-03-21T04:55:39.164Z,2.02
2019-03-21T04:56:39.155Z,2.02
2019-03-21T04:57:39.139Z,1.94
2019-03-21T04:58:39.158Z,1.87
2019-03-21T04:59:39.114Z,1.91
2019-03-21T05:00:39.103Z,1.99
2019-03-21T05:01:39.096Z,1.93
2019-03-21T05:02:39.094Z,1.94
2019-03-21T05:03:39.051Z,1.64
2019-03-21T05:04:39.054Z,1.68
2019-03-21T05:05:39.047Z,1.64
2019-03-21T05:06:39.037Z,1.61
2019-03-21T05:07:39.055Z,1.50
2019-03-21T05:08:39.011Z,1.55
2019-03-21T05:09:39.038Z,1.60
2019-03-21T05:10:39.078Z,1.60
2019-03-21T05:11:38.996Z,1.50
2019-03-21T05:12:38.971Z,1.57
2019-03-21T05:13:38.964Z,1.55
2019-03-21T05:14:38.985Z,1.55
2019-03-21T05:15:38.909Z,1.51
2019-03-21T05:16:38.888Z,1.55
2019-03-21T05:17:38.906Z,1.57
2019-03-21T05:18:38.899Z,1.47
2019-03-21T05:19:38.851Z,1.58
2019-03-21T05:20:38.936Z,1.69
2019-03-21T05:21:38.850Z,1.71
2019-03-21T05:22:38.912Z,1.65
2019-03-21T05:23:38.902Z,1.72
2019-03-21T05:24:38.847Z,1.69
2019-03-21T05:25:39.233Z,1.76
2019-03-21T05:26:38.867Z,1.75
2019-03-21T05:27:38.845Z,1.85
2019-03-21T05:28:38.840Z,1.83
2019-03-21T05:29:38.770Z,1.87
2019-03-21T05:30:38.794Z,1.85
2019-03-21T05:31:38.763Z,1.90
2019-03-21T05:32:38.794Z,1.82
2019-03-21T05:33:38.792Z,1.82
2019-03-21T05:34:47.007Z,1.83
2019-03-21T05:35:39.942Z,1.85
2019-03-21T05:36:39.581Z,1.90
2019-03-21T05:37:39.073Z,1.87
2019-03-21T05:38:39.060Z,1.85
2019-03-21T05:39:38.734Z,1.89
2019-03-21T05:40:38.643Z,1.89
2019-03-21T05:41:38.582Z,2.01
2019-03-21T05:42:38.675Z,2.04
2019-03-21T05:43:38.583Z,1.97
2019-03-21T05:44:38.611Z,2.08
2019-03-21T05:45:38.551Z,2.04
2019-03-21T05:46:38.766Z,2.12
2019-03-21T05:47:38.511Z,2.06
2019-03-21T05:48:38.627Z,1.94
2019-03-21T05:49:38.525Z,1.97
2019-03-21T05:50:38.557Z,2.06
2019-03-21T05:51:38.539Z,2.04
2019-03-21T05:52:48.053Z,2.15
2019-03-21T05:54:42.965Z,2.16
2019-03-21T05:55:42.948Z,2.22
2019-03-21T05:56:51.999Z,2.19
2019-03-21T05:58:46.839Z,2.28
2019-03-21T05:59:45.443Z,2.27
2019-03-21T06:03:35.056Z,2.40
2019-03-21T06:04:34.308Z,2.38
2019-03-21T06:05:34.323Z,2.34
2019-03-21T06:06:34.613Z,2.46
2019-03-21T06:07:35.058Z,2.37
2019-03-21T06:08:34.297Z,2.35
2019-03-21T06:09:34.238Z,2.45
2019-03-21T06:10:34.332Z,2.38
2019-03-21T06:11:34.240Z,2.41
2019-03-21T06:12:34.232Z,2.46
2019-03-21T06:13:34.234Z,2.40
2019-03-21T06:14:34.189Z,2.46
2019-03-21T06:18:37.489Z,2.49
2019-03-21T06:19:35.496Z,2.38
2019-03-21T06:21:31.104Z,2.52
2019-03-21T06:22:31.318Z,2.67
2019-03-21T06:23:30.984Z,2.67
2019-03-21T06:24:30.743Z,2.74
2019-03-21T06:25:31.146Z,2.76
2019-03-21T06:26:30.877Z,2.73
2019-03-21T06:27:30.803Z,2.73
2019-03-21T06:28:30.691Z,2.73
2019-03-21T06:29:30.814Z,2.84
2019-03-21T06:30:30.787Z,2.77
2019-03-21T06:31:30.602Z,2.79
2019-03-21T06:32:30.619Z,2.87
2019-03-21T06:33:30.618Z,2.85
2019-03-21T06:36:22.310Z,2.98
2019-03-21T06:37:21.354Z,3.09
2019-03-21T06:39:26.720Z,3.03
2019-03-21T06:40:26.767Z,3.03
2019-03-21T06:41:25.680Z,3.10
2019-03-21T06:44:51.894Z,3.15
2019-03-21T06:45:51.350Z,3.15
2019-03-21T06:50:31.885Z,3.36
2019-03-21T06:51:40.275Z,3.44
2019-03-21T06:53:37.393Z,3.49
2019-03-21T06:54:37.950Z,3.52
2019-03-21T06:55:37.175Z,3.61
2019-03-21T06:56:36.979Z,3.58
2019-03-21T06:57:37.873Z,3.65
2019-03-21T06:58:37.348Z,3.71
2019-03-21T06:59:36.963Z,3.72
2019-03-21T07:00:36.954Z,3.65
2019-03-21T07:01:37.006Z,3.76
2019-03-21T07:02:36.947Z,3.78
2019-03-21T07:03:36.980Z,3.78
2019-03-21T07:04:36.930Z,3.83
2019-03-21T07:05:45.952Z,3.89
2019-03-21T07:07:41.916Z,4.16
2019-03-21T07:08:41.599Z,4.10
2019-03-21T07:09:41.890Z,4.15
2019-03-21T07:10:43.206Z,4.16
2019-03-21T07:11:41.593Z,4.21
2019-03-21T07:12:41.487Z,4.22
2019-03-21T07:13:41.501Z,4.18
2019-03-21T07:14:41.495Z,4.28
2019-03-21T07:15:41.549Z,4.33
2019-03-21T07:16:41.464Z,4.33
2019-03-21T07:17:41.426Z,4.37
2019-03-21T07:18:41.435Z,4.43
2019-03-21T07:19:41.399Z,4.50
2019-03-21T07:20:41.401Z,4.46
2019-03-21T07:21:41.393Z,4.46
2019-03-21T07:22:41.386Z,4.55
2019-03-21T07:23:41.394Z,4.69
2019-03-21T07:24:41.404Z,4.76
2019-03-21T07:25:41.336Z,4.76
2019-03-21T07:26:41.384Z,4.80
2019-03-21T07:27:41.332Z,4.95
2019-03-21T07:28:41.453Z,4.79
2019-03-21T07:29:41.369Z,4.88
2019-03-21T07:30:41.316Z,4.89
2019-03-21T07:31:41.248Z,4.95
2019-03-21T07:32:41.240Z,5.02
2019-03-21T07:33:41.236Z,5.04
2019-03-21T07:34:41.287Z,5.12
2019-03-21T07:35:41.255Z,5.12
2019-03-21T07:36:41.211Z,5.12
2019-03-21T07:37:41.241Z,5.09
2019-03-21T07:38:41.217Z,5.27
2019-03-21T07:39:41.195Z,5.30
2019-03-21T07:40:41.164Z,5.25
2019-03-21T07:41:41.185Z,5.30
2019-03-21T07:42:41.200Z,5.25
2019-03-21T07:43:41.118Z,5.23
2019-03-21T07:44:41.117Z,5.30
2019-03-21T07:45:41.111Z,5.31
2019-03-21T07:46:41.129Z,5.37
2019-03-21T07:47:41.117Z,5.48
2019-03-21T07:48:41.136Z,5.41
2019-03-21T07:49:41.097Z,5.48
2019-03-21T07:50:41.053Z,5.56
2019-03-21T07:51:41.095Z,5.53
2019-03-21T07:52:41.128Z,5.55
2019-03-21T07:53:41.074Z,5.73
2019-03-21T07:54:41.129Z,5.71
2019-03-21T07:55:41.066Z,5.71
2019-03-21T07:56:40.995Z,5.73
2019-03-21T07:57:41.020Z,5.73
2019-03-21T07:58:41.102Z,5.64
2019-03-21T07:59:41.040Z,5.70
2019-03-21T08:00:41.011Z,5.71
2019-03-21T08:01:40.937Z,5.82
2019-03-21T08:02:40.982Z,5.92
2019-03-21T08:03:40.930Z,5.81
2019-03-21T08:04:40.927Z,5.93
2019-03-21T08:05:40.943Z,5.93
2019-03-21T08:06:40.915Z,5.95
2019-03-21T08:07:40.935Z,5.92
2019-03-21T08:08:40.871Z,5.96
2019-03-21T08:09:40.924Z,6.00
2019-03-21T08:10:40.870Z,6.14
2019-03-21T08:11:40.840Z,6.22
2019-03-21T08:12:49.920Z,6.26
2019-03-21T08:14:54.615Z,6.14
2019-03-21T08:15:55.046Z,6.26
2019-03-21T08:17:48.354Z,6.30
2019-03-21T08:18:39.095Z,6.36
2019-03-21T08:19:39.126Z,6.54
2019-03-21T08:20:39.091Z,6.54
2019-03-21T08:21:39.099Z,6.53
2019-03-21T08:22:39.049Z,6.58
2019-03-21T08:23:39.025Z,6.56
2019-03-21T08:24:39.019Z,6.76
2019-03-21T08:25:39.048Z,6.66
2019-03-21T08:26:39.004Z,6.69
2019-03-21T08:27:48.057Z,6.79
2019-03-21T08:29:52.852Z,6.97
2019-03-21T08:30:52.587Z,6.94
2019-03-21T08:32:47.995Z,7.01
2019-03-21T08:33:47.900Z,6.94
2019-03-21T08:34:47.953Z,6.98
2019-03-21T08:35:48.183Z,7.01
2019-03-21T08:36:47.887Z,7.15
2019-03-21T08:37:47.866Z,7.16
2019-03-21T08:38:47.872Z,7.40
2019-03-21T08:39:47.838Z,7.41
2019-03-21T08:40:47.835Z,7.47
2019-03-21T08:41:47.840Z,7.59
2019-03-21T08:42:47.843Z,7.72
2019-03-21T08:43:47.854Z,7.67
2019-03-21T08:44:47.810Z,7.74
2019-03-21T08:45:47.821Z,7.79
2019-03-21T08:46:47.795Z,7.92
2019-03-21T08:47:47.846Z,7.82
2019-03-21T08:48:47.789Z,7.77
2019-03-21T08:49:47.749Z,7.84
2019-03-21T08:50:47.781Z,7.89
2019-03-21T08:51:47.740Z,8.00
2019-03-21T08:52:47.762Z,8.10
2019-03-21T08:53:47.757Z,8.02
2019-03-21T08:54:47.724Z,8.14
2019-03-21T08:55:47.690Z,8.29
2019-03-21T08:56:47.723Z,8.22
2019-03-21T08:57:47.715Z,8.33
2019-03-21T08:58:47.690Z,8.37
2019-03-21T08:59:48.084Z,8.45
2019-03-21T09:00:47.680Z,8.51
2019-03-21T09:01:47.720Z,8.58
2019-03-21T09:02:47.639Z,8.60
2019-03-21T09:03:47.665Z,8.69
2019-03-21T09:04:47.639Z,8.71
2019-03-21T09:05:47.702Z,8.76
2019-03-21T09:06:47.610Z,8.69
2019-03-21T09:07:47.613Z,8.71
2019-03-21T09:08:47.652Z,8.76
2019-03-21T09:09:47.574Z,8.68
2019-03-21T09:10:47.558Z,8.75
2019-03-21T09:11:47.660Z,8.99
2019-03-21T09:12:47.631Z,9.04
2019-03-21T09:13:47.559Z,8.93
2019-03-21T09:14:47.582Z,9.02
2019-03-21T09:15:47.631Z,9.12
2019-03-21T09:16:47.553Z,9.10
2019-03-21T09:17:47.565Z,9.18
2019-03-21T09:18:47.561Z,9.38
2019-03-21T09:19:47.542Z,9.49
2019-03-21T09:20:47.567Z,9.57
2019-03-21T09:21:47.571Z,9.58
2019-03-21T09:22:47.620Z,9.57
2019-03-21T09:23:47.513Z,9.60
2019-03-21T09:24:47.563Z,9.67
2019-03-21T09:25:47.695Z,9.67
2019-03-21T09:26:47.529Z,9.71
2019-03-21T09:27:47.512Z,9.81
2019-03-21T09:28:58.334Z,9.93
2019-03-21T09:31:03.138Z,9.94
2019-03-21T09:31:53.748Z,10.15
2019-03-21T09:32:53.514Z,10.15
2019-03-21T09:34:02.279Z,10.03
2019-03-21T09:35:58.497Z,10.18
2019-03-21T09:36:57.991Z,10.36
2019-03-21T09:38:06.459Z,10.36
2019-03-21T09:40:03.334Z,10.34
2019-03-21T09:41:03.090Z,10.40
2019-03-21T09:43:08.392Z,10.39
2019-03-21T09:44:08.287Z,10.55
2019-03-21T09:46:01.924Z,10.58
2019-03-21T09:47:01.685Z,10.55
2019-03-21T09:48:01.776Z,10.65
2019-03-21T09:49:02.047Z,10.66
2019-03-21T09:50:01.636Z,10.68
2019-03-21T09:51:01.697Z,10.60
2019-03-21T09:52:01.654Z,10.65
2019-03-21T09:53:01.625Z,10.60
2019-03-21T09:54:09.544Z,10.89
2019-03-21T09:55:01.571Z,10.86
2019-03-21T09:56:10.505Z,10.84
2019-03-21T09:57:55.087Z,10.99
2019-03-21T09:58:55.356Z,10.94
2019-03-21T09:59:55.444Z,10.95
2019-03-21T10:00:55.001Z,11.21
2019-03-21T10:01:54.975Z,11.24
2019-03-21T10:02:54.992Z,11.09
2019-03-21T10:03:55.000Z,11.14
2019-03-21T10:04:54.941Z,11.16
2019-03-21T10:05:54.932Z,11.39
2019-03-21T10:07:04.073Z,11.32
2019-03-21T10:09:02.406Z,11.36
2019-03-21T10:10:01.850Z,11.46
2019-03-21T10:12:06.829Z,11.57
2019-03-21T10:13:06.177Z,11.52
2019-03-21T10:14:05.971Z,11.47
2019-03-21T10:15:05.984Z,11.67
2019-03-21T10:16:06.382Z,11.65
2019-03-21T10:17:05.984Z,11.59
2019-03-21T10:18:05.863Z,11.68
2019-03-21T10:19:05.842Z,11.70
2019-03-21T10:20:05.886Z,11.70
2019-03-21T10:21:05.902Z,11.61
2019-03-21T10:22:05.821Z,11.70
2019-03-21T10:23:05.827Z,11.72
2019-03-21T10:24:05.846Z,11.80
2019-03-21T10:25:14.908Z,11.74
2019-03-21T10:27:22.334Z,11.78
2019-03-21T10:28:20.542Z,11.78
2019-03-21T10:30:14.225Z,11.87
2019-03-21T10:31:15.219Z,11.78
2019-03-21T10:33:11.538Z,11.82
2019-03-21T10:34:10.816Z,11.89
2019-03-21T10:35:10.719Z,11.74
2019-03-21T10:36:10.809Z,11.86
2019-03-21T10:37:10.975Z,11.99
2019-03-21T10:38:10.680Z,12.12
2019-03-21T10:39:10.588Z,12.11
2019-03-21T10:40:10.592Z,12.05
2019-03-21T10:41:10.590Z,12.13
2019-03-21T10:42:10.634Z,12.12
2019-03-21T10:43:10.858Z,12.20
2019-03-21T10:44:10.594Z,12.23
2019-03-21T10:45:10.590Z,12.20
2019-03-21T10:46:10.625Z,12.34
2019-03-21T10:47:10.584Z,12.27
2019-03-21T10:48:10.548Z,12.34
2019-03-21T10:49:10.581Z,12.38
2019-03-21T10:50:10.499Z,12.39
2019-03-21T10:51:10.530Z,12.62
2019-03-21T10:52:10.579Z,12.56
2019-03-21T10:53:10.575Z,12.57
2019-03-21T10:54:10.552Z,12.54
2019-03-21T10:55:10.515Z,12.54
2019-03-21T10:56:10.490Z,12.64
2019-03-21T10:57:10.507Z,12.74
2019-03-21T10:58:10.489Z,12.69
2019-03-21T10:59:10.563Z,12.75
2019-03-21T11:00:10.489Z,12.95
2019-03-21T11:01:19.705Z,12.85
2019-03-21T11:03:15.254Z,12.77
2019-03-21T11:04:15.292Z,12.63
2019-03-21T11:05:15.070Z,12.84
2019-03-21T11:06:15.166Z,12.93
2019-03-21T11:07:15.303Z,12.79
2019-03-21T11:08:14.981Z,12.82
2019-03-21T11:09:14.919Z,12.99
2019-03-21T11:10:14.935Z,13.09
2019-03-21T11:11:14.901Z,13.20
2019-03-21T11:12:14.872Z,13.30
2019-03-21T11:13:14.920Z,13.36
2019-03-21T11:14:14.955Z,13.27
2019-03-21T11:15:14.858Z,13.25
2019-03-21T11:16:14.878Z,13.24
2019-03-21T11:17:14.857Z,13.14
2019-03-21T11:18:14.904Z,13.30
2019-03-21T11:19:14.886Z,13.24
2019-03-21T11:20:14.889Z,13.36
2019-03-21T11:21:24.423Z,13.30
2019-03-21T11:23:17.717Z,13.51
2019-03-21T11:24:09.820Z,13.61
2019-03-21T11:26:03.405Z,13.65
2019-03-21T11:27:03.227Z,13.32
2019-03-21T11:28:03.830Z,13.33
2019-03-21T11:29:03.025Z,13.30
2019-03-21T11:30:02.836Z,13.46
2019-03-21T11:31:02.903Z,13.38
2019-03-21T11:32:02.850Z,13.54
2019-03-21T11:33:02.883Z,13.41
2019-03-21T11:34:02.891Z,13.29
2019-03-21T11:35:02.836Z,13.49
2019-03-21T11:36:02.799Z,13.55
2019-03-21T11:37:02.789Z,13.61
2019-03-21T11:38:02.856Z,13.52
2019-03-21T11:39:02.808Z,13.58
2019-03-21T11:40:02.823Z,13.70
2019-03-21T11:41:02.846Z,13.61
2019-03-21T11:42:02.773Z,13.56
2019-03-21T11:43:02.802Z,13.79
2019-03-21T11:44:02.819Z,13.70
2019-03-21T11:45:02.775Z,13.74
2019-03-21T11:46:02.792Z,13.67
2019-03-21T11:47:02.780Z,13.70
2019-03-21T11:48:02.824Z,13.71
2019-03-21T11:49:02.799Z,13.84
2019-03-21T11:50:02.764Z,13.91
2019-03-21T11:51:02.820Z,13.96
2019-03-21T11:52:02.746Z,13.84
2019-03-21T11:53:02.764Z,13.87
2019-03-21T11:54:02.704Z,13.83
2019-03-21T11:55:02.709Z,13.98
2019-03-21T11:56:02.745Z,13.84
2019-03-21T11:57:02.738Z,13.88
2019-03-21T11:58:02.708Z,13.96
2019-03-21T11:59:02.721Z,13.99
2019-03-21T12:00:02.773Z,13.95
2019-03-21T12:01:02.702Z,13.94
2019-03-21T12:02:12.120Z,14.10
2019-03-21T12:04:15.292Z,14.21
2019-03-21T12:05:07.432Z,14.21
2019-03-21T12:07:11.882Z,14.21
2019-03-21T12:08:11.911Z,14.24
2019-03-21T12:09:11.834Z,14.06
2019-03-21T12:10:11.856Z,14.14
2019-03-21T12:11:11.877Z,14.35
2019-03-21T12:12:11.984Z,13.98
2019-03-21T12:13:11.919Z,14.09
2019-03-21T12:14:11.822Z,14.12
2019-03-21T12:15:11.857Z,14.02
2019-03-21T12:16:11.834Z,14.31
2019-03-21T12:17:12.918Z,14.04
2019-03-21T12:18:11.810Z,14.10
2019-03-21T12:19:11.824Z,14.20
2019-03-21T12:20:11.778Z,14.19
2019-03-21T12:21:11.827Z,14.35
2019-03-21T12:22:11.796Z,14.24
2019-03-21T12:23:11.769Z,14.21
2019-03-21T12:24:11.812Z,14.34
2019-03-21T12:25:11.858Z,14.42
2019-03-21T12:26:11.842Z,14.27
2019-03-21T12:27:11.822Z,14.27
2019-03-21T12:28:11.754Z,14.12
2019-03-21T12:29:11.808Z,14.13
2019-03-21T12:30:11.794Z,14.31
2019-03-21T12:31:11.780Z,14.32
2019-03-21T12:32:11.739Z,14.25
2019-03-21T12:33:11.753Z,14.31
2019-03-21T12:35:51.229Z,14.52
2019-03-21T12:36:51.189Z,14.44
2019-03-21T12:38:44.667Z,14.38
2019-03-21T12:39:44.610Z,14.50
2019-03-21T12:40:44.590Z,14.35
2019-03-21T12:41:44.713Z,14.47
2019-03-21T12:42:44.586Z,14.49
2019-03-21T12:43:44.586Z,14.56
2019-03-21T12:44:44.572Z,14.57
2019-03-21T12:45:44.575Z,14.65
2019-03-21T12:46:44.584Z,14.68
2019-03-21T12:49:46.756Z,14.71
2019-03-21T12:50:46.727Z,14.81
2019-03-21T12:51:46.737Z,14.84
2019-03-21T12:52:46.775Z,14.78
2019-03-21T12:53:46.697Z,14.84
2019-03-21T12:54:46.728Z,14.71
2019-03-21T12:55:46.700Z,14.74
2019-03-21T12:56:46.701Z,14.83
2019-03-21T12:57:46.701Z,14.75
2019-03-21T12:58:46.712Z,14.78
2019-03-21T12:59:46.692Z,14.93
2019-03-21T13:00:46.684Z,14.90
2019-03-21T13:01:46.673Z,14.78
2019-03-21T13:02:46.726Z,14.74
2019-03-21T13:03:46.638Z,14.80
2019-03-21T13:04:46.669Z,14.88
2019-03-21T13:05:46.662Z,14.95
2019-03-21T13:06:46.699Z,14.83
2019-03-21T13:07:46.662Z,14.91
2019-03-21T13:08:46.630Z,15.03
2019-03-21T13:09:46.652Z,15.06
2019-03-21T13:10:46.667Z,15.08
2019-03-21T13:11:46.611Z,15.05
2019-03-21T13:12:46.617Z,15.05
2019-03-21T13:13:46.629Z,15.08
2019-03-21T13:14:46.654Z,15.26
2019-03-21T13:15:46.597Z,15.09
2019-03-21T13:16:46.610Z,15.15
2019-03-21T13:17:46.649Z,15.06
2019-03-21T13:18:46.595Z,15.06
2019-03-21T13:19:46.590Z,15.03
2019-03-21T13:20:46.613Z,15.17
2019-03-21T13:21:46.607Z,15.26
2019-03-21T13:22:52.995Z,15.26
2019-03-21T13:23:46.577Z,15.38
2019-03-21T13:24:46.604Z,15.24
2019-03-21T13:25:46.604Z,15.39
2019-03-21T13:26:46.608Z,15.31
2019-03-21T13:27:46.580Z,15.31
2019-03-21T13:28:46.571Z,15.19
2019-03-21T13:29:46.572Z,15.30
2019-03-21T13:30:46.575Z,15.21
2019-03-21T13:31:46.551Z,15.36
2019-03-21T13:32:47.169Z,15.31
2019-03-21T13:33:55.361Z,15.28
2019-03-21T13:35:49.081Z,15.46
2019-03-21T13:36:49.651Z,15.48
2019-03-21T13:38:33.683Z,15.42
2019-03-21T13:39:33.677Z,15.57
2019-03-21T13:40:33.721Z,15.59
2019-03-21T13:41:33.790Z,15.63
2019-03-21T13:42:33.653Z,15.59
2019-03-21T13:43:33.637Z,15.76
2019-03-21T13:44:33.696Z,15.60
2019-03-21T13:45:33.642Z,15.57
2019-03-21T13:46:33.643Z,15.52
2019-03-21T13:47:33.606Z,15.59
2019-03-21T13:48:33.628Z,15.54
2019-03-21T13:49:33.624Z,15.70
2019-03-21T13:50:33.616Z,15.78
2019-03-21T13:51:33.607Z,15.82
2019-03-21T13:52:33.612Z,15.74
2019-03-21T13:53:42.599Z,15.72
2019-03-21T13:55:27.100Z,15.89
2019-03-21T13:56:38.307Z,15.74
2019-03-21T13:58:30.668Z,15.63
2019-03-21T13:59:29.387Z,15.63
2019-03-21T14:02:55.466Z,15.39
2019-03-21T14:03:53.307Z,15.60
2019-03-21T14:04:53.325Z,15.66
2019-03-21T14:05:55.221Z,15.74
2019-03-21T14:06:53.437Z,15.67
2019-03-21T14:07:53.283Z,15.68
2019-03-21T14:08:53.280Z,15.72
2019-03-21T14:09:53.265Z,15.78
2019-03-21T14:10:53.298Z,15.96
2019-03-21T14:11:53.301Z,15.79
2019-03-21T14:12:53.280Z,15.74
2019-03-21T14:13:53.302Z,15.81
2019-03-21T14:14:53.335Z,15.88
2019-03-21T14:15:53.299Z,15.85
2019-03-21T14:16:53.264Z,15.85
2019-03-21T14:17:53.238Z,15.94
2019-03-21T14:18:53.273Z,15.82
2019-03-21T14:19:53.248Z,15.92
2019-03-21T14:20:53.252Z,15.93
2019-03-21T14:21:53.249Z,15.92
2019-03-21T14:22:53.253Z,16.03
2019-03-21T14:23:53.253Z,15.97
2019-03-21T14:24:53.214Z,15.86
2019-03-21T14:25:53.219Z,15.92
2019-03-21T14:26:53.214Z,15.86
2019-03-21T14:27:53.245Z,15.94
2019-03-21T14:28:53.244Z,16.07
2019-03-21T14:30:01.219Z,16.01
2019-03-21T14:30:53.244Z,16.11
2019-03-21T14:31:53.211Z,16.06
2019-03-21T14:32:53.209Z,16.07
2019-03-21T14:33:53.247Z,15.96
2019-03-21T14:34:53.183Z,15.99
2019-03-21T14:35:53.190Z,15.94
2019-03-21T14:36:53.189Z,16.18
2019-03-21T14:37:53.200Z,16.06
2019-03-21T14:38:53.197Z,15.97
2019-03-21T14:39:53.169Z,16.06
2019-03-21T14:40:53.207Z,16.07